Terminal Aerodrome Forecast
Issued by NWS

Home | Current Version | Previous Version | Text Only | Print | Product List | Glossary On
Versions: 1 2 3 4 5 6 7 8 9 10 11 12 13 14
000
FTUS42 KFFC 291100
TAFFTY
TAF
KFTY 291137Z 2912/3012 00000KT P6SM FEW250
     FM291600 18005KT P6SM FEW060 FEW250
     FM300000 00000KT P6SM SCT070 SCT250=

USA.gov is the U.S. government's official web portal to all federal, state and local government web resources and services.